Time;durP1;ratioP1;P1;durP2;ratioP2;P2;SDS_P1;SDS_P2;PMS_P1;PMS_P2;Temp;Humidity;BMP_temperature;BMP_pressure;BME280_temperature;BME280_humidity;BME280_pressure;Samples;Min_cycle;Max_cycle;Signal;HPM_P1;HPM_P2
2023/12/22 00:01:00;;;;;;;5.20;1.20;;;2.80;99.90;;;;;;4955980;29;20261;-74
2023/12/22 00:03:27;;;;;;;3.97;1.50;;;2.70;99.90;;;;;;4955892;29;20211;-74
2023/12/22 00:05:55;;;;;;;5.07;1.60;;;2.70;99.90;;;;;;4956026;29;20206;-74
2023/12/22 00:08:23;;;;;;;6.17;1.60;;;2.60;99.90;;;;;;4955727;29;20221;-73
2023/12/22 00:10:50;;;;;;;5.80;1.70;;;2.60;99.90;;;;;;4955724;29;20573;-73
2023/12/22 00:13:16;;;;;;;2.53;1.57;;;2.60;99.90;;;;;;4955738;29;20289;-73
2023/12/22 00:15:43;;;;;;;6.83;1.83;;;2.60;99.90;;;;;;4955739;29;20202;-73
2023/12/22 00:18:10;;;;;;;5.80;1.80;;;2.50;99.90;;;;;;4955595;29;20646;-73
2023/12/22 00:20:37;;;;;;;7.67;1.90;;;2.50;99.90;;;;;;4955730;29;20245;-73
2023/12/22 00:23:05;;;;;;;8.10;1.83;;;2.50;99.90;;;;;;4955473;29;20203;-74
2023/12/22 00:25:31;;;;;;;7.83;1.83;;;2.50;99.90;;;;;;4955409;29;20266;-75
2023/12/22 00:27:58;;;;;;;4.80;1.70;;;2.50;99.90;;;;;;4955510;29;20200;-74
2023/12/22 00:30:24;;;;;;;7.67;2.20;;;2.60;99.90;;;;;;4955506;29;20203;-74
2023/12/22 00:32:51;;;;;;;7.57;1.93;;;2.60;99.90;;;;;;4955193;29;20276;-74
2023/12/22 00:35:18;;;;;;;8.73;2.37;;;2.60;99.90;;;;;;4955357;29;20206;-74
2023/12/22 00:37:44;;;;;;;6.27;2.23;;;2.60;99.90;;;;;;4955234;29;20251;-75
2023/12/22 00:40:13;;;;;;;8.10;2.23;;;2.60;99.90;;;;;;4955282;29;20197;-74
2023/12/22 00:42:40;;;;;;;8.17;1.90;;;2.60;99.90;;;;;;4955335;29;20238;-74
2023/12/22 00:45:07;;;;;;;9.07;1.90;;;2.60;99.90;;;;;;4955312;29;20262;-75
2023/12/22 00:47:34;;;;;;;4.70;1.60;;;2.60;99.90;;;;;;4955143;29;20205;-75
2023/12/22 00:50:01;;;;;;;7.37;1.97;;;2.50;99.90;;;;;;4955177;29;20205;-74
2023/12/22 00:52:28;;;;;;;3.43;1.70;;;2.60;99.90;;;;;;4954148;28;20221;-75
2023/12/22 00:54:54;;;;;;;6.40;1.67;;;2.60;99.90;;;;;;4955189;29;20252;-75
2023/12/22 00:57:22;;;;;;;7.13;1.90;;;2.50;99.90;;;;;;4955091;29;20201;-75
2023/12/22 00:59:49;;;;;;;5.63;1.67;;;2.60;99.90;;;;;;4955033;29;20265;-75
2023/12/22 01:02:16;;;;;;;8.07;1.90;;;2.60;99.90;;;;;;4954757;29;20662;-74
2023/12/22 01:04:43;;;;;;;7.17;1.93;;;2.60;99.90;;;;;;4954788;29;20570;-73
2023/12/22 01:07:10;;;;;;;5.60;1.70;;;2.50;99.90;;;;;;4955050;29;20255;-73
2023/12/22 01:09:37;;;;;;;6.30;1.63;;;2.60;99.90;;;;;;4954935;29;20208;-74
2023/12/22 01:12:04;;;;;;;4.27;1.67;;;2.60;99.90;;;;;;4954729;29;20257;-74
2023/12/22 01:14:33;;;;;;;3.97;1.50;;;2.60;99.90;;;;;;4954695;29;20212;-73
2023/12/22 01:17:00;;;;;;;3.93;1.43;;;2.60;99.90;;;;;;4954772;29;20705;-74
2023/12/22 01:19:27;;;;;;;4.83;1.73;;;2.60;99.90;;;;;;4954712;29;20205;-73
2023/12/22 01:21:53;;;;;;;4.43;1.60;;;2.60;99.90;;;;;;4954533;29;20641;-73
2023/12/22 01:24:20;;;;;;;2.87;0.97;;;2.70;99.90;;;;;;4954579;29;20542;-74
2023/12/22 01:26:46;;;;;;;2.53;1.40;;;2.60;99.90;;;;;;4954962;29;20240;-73
2023/12/22 01:29:13;;;;;;;3.43;1.17;;;2.60;99.90;;;;;;4954706;29;20205;-73
2023/12/22 01:31:41;;;;;;;5.33;1.30;;;2.60;99.90;;;;;;4954647;29;20227;-73
2023/12/22 01:34:08;;;;;;;2.83;1.20;;;2.60;99.90;;;;;;4954235;29;20269;-73
2023/12/22 01:36:35;;;;;;;6.37;1.17;;;2.50;99.90;;;;;;4954771;29;20196;-73
2023/12/22 01:39:01;;;;;;;3.00;1.50;;;2.50;99.90;;;;;;4954602;29;20653;-76
2023/12/22 01:41:28;;;;;;;2.43;1.10;;;2.50;99.90;;;;;;4954444;29;20205;-73
2023/12/22 01:43:55;;;;;;;2.40;1.10;;;2.50;99.90;;;;;;4954625;29;20197;-73
2023/12/22 01:46:21;;;;;;;2.20;1.30;;;2.60;99.90;;;;;;4954488;29;20252;-73
2023/12/22 01:48:49;;;;;;;2.67;1.13;;;2.50;99.90;;;;;;4954875;29;20248;-73
2023/12/22 01:51:17;;;;;;;2.17;1.17;;;2.50;99.90;;;;;;4954584;29;20207;-73
2023/12/22 01:53:45;;;;;;;4.40;1.30;;;2.50;99.90;;;;;;4954530;29;20232;-73
2023/12/22 01:56:12;;;;;;;2.03;0.90;;;2.60;99.90;;;;;;4954469;29;20256;-73
2023/12/22 01:58:39;;;;;;;4.40;1.40;;;2.60;99.90;;;;;;4953979;29;20201;-73
2023/12/22 02:01:06;;;;;;;3.53;1.33;;;2.60;99.90;;;;;;4954214;29;20206;-73
2023/12/22 02:03:33;;;;;;;4.63;1.40;;;2.60;99.90;;;;;;4956376;28;20293;-73
2023/12/22 02:06:01;;;;;;;2.70;1.30;;;2.60;99.90;;;;;;4957861;29;20261;-73
2023/12/22 02:08:32;;;;;;;1.97;1.10;;;2.60;99.90;;;;;;4957877;29;20201;-73
2023/12/22 02:10:59;;;;;;;2.53;1.20;;;2.70;99.90;;;;;;4958078;29;20223;-73
2023/12/22 02:13:26;;;;;;;2.03;1.20;;;2.80;99.90;;;;;;4957794;29;20287;-74
2023/12/22 02:16:00;;;;;;;2.50;1.10;;;2.80;99.90;;;;;;4957892;29;20810;-73
2023/12/22 02:18:34;;;;;;;2.90;1.50;;;2.80;99.90;;;;;;4958018;29;20207;-73
2023/12/22 02:21:01;;;;;;;1.70;1.30;;;2.80;99.90;;;;;;4957910;29;20257;-73
2023/12/22 02:23:29;;;;;;;2.37;1.20;;;2.80;99.90;;;;;;4957719;29;20210;-73
2023/12/22 02:26:04;;;;;;;3.33;1.10;;;2.80;99.90;;;;;;4957635;29;20205;-72
2023/12/22 02:28:32;;;;;;;2.30;0.93;;;2.70;99.90;;;;;;4957688;29;20720;-73
2023/12/22 02:31:05;;;;;;;2.80;1.10;;;2.70;99.90;;;;;;4957819;29;20205;-74
2023/12/22 02:33:34;;;;;;;1.67;1.20;;;2.60;99.90;;;;;;4957462;29;20253;-73
2023/12/22 02:36:05;;;;;;;3.00;1.40;;;2.50;99.90;;;;;;4957633;29;20269;-73
2023/12/22 02:38:35;;;;;;;3.67;1.30;;;2.40;99.90;;;;;;4957454;29;20237;-73
2023/12/22 02:41:02;;;;;;;2.17;1.13;;;2.50;99.90;;;;;;4957571;29;20202;-73
2023/12/22 02:43:29;;;;;;;2.53;1.17;;;2.50;99.90;;;;;;4957214;29;20287;-74
2023/12/22 02:45:56;;;;;;;1.40;1.00;;;2.50;99.90;;;;;;4957459;29;20255;-74
2023/12/22 02:48:22;;;;;;;1.37;1.00;;;2.50;99.90;;;;;;4957096;29;20209;-74
2023/12/22 02:50:49;;;;;;;2.40;1.20;;;2.50;99.90;;;;;;4957242;29;20277;-74
2023/12/22 02:53:15;;;;;;;1.60;1.00;;;2.50;99.90;;;;;;4957126;29;20354;-74
2023/12/22 02:55:43;;;;;;;1.60;0.90;;;2.60;99.90;;;;;;4957498;29;20261;-75
2023/12/22 02:58:10;;;;;;;1.10;1.00;;;2.60;99.90;;;;;;4957273;29;20248;-75
2023/12/22 03:00:37;;;;;;;1.07;0.87;;;2.60;99.90;;;;;;4957322;29;20261;-75
2023/12/22 03:03:04;;;;;;;2.23;1.10;;;2.70;99.90;;;;;;4957129;29;20617;-76
2023/12/22 03:05:30;;;;;;;2.00;1.10;;;2.60;99.90;;;;;;4957008;29;20198;-77
2023/12/22 03:07:57;;;;;;;2.77;1.20;;;2.60;99.90;;;;;;4957153;29;20607;-75
2023/12/22 03:10:24;;;;;;;1.10;1.00;;;2.60;99.90;;;;;;4956818;29;20661;-76
2023/12/22 03:12:52;;;;;;;1.20;1.00;;;2.70;99.90;;;;;;4956781;29;20202;-75
2023/12/22 03:15:18;;;;;;;1.67;1.03;;;2.70;99.90;;;;;;4955983;28;20205;-77
2023/12/22 03:17:45;;;;;;;1.97;0.90;;;2.70;99.90;;;;;;4957014;29;20244;-78
2023/12/22 03:20:12;;;;;;;1.40;1.00;;;2.70;99.90;;;;;;4959052;29;20202;-77
2023/12/22 03:22:37;;;;;;;0.80;0.80;;;2.70;99.90;;;;;;4957391;29;20649;-78
2023/12/22 03:25:04;;;;;;;1.53;0.93;;;2.60;99.90;;;;;;4956797;29;20213;-79
2023/12/22 03:27:31;;;;;;;2.23;1.10;;;2.60;99.90;;;;;;4956804;29;20275;-80
2023/12/22 03:30:01;;;;;;;2.37;0.90;;;2.50;99.90;;;;;;4957012;29;20245;-80
2023/12/22 03:32:28;;;;;;;1.13;0.80;;;2.40;99.90;;;;;;4956527;29;20229;-78
2023/12/22 03:34:54;;;;;;;1.47;0.63;;;2.30;99.90;;;;;;4956558;29;20253;-78
2023/12/22 03:37:21;;;;;;;1.57;0.90;;;2.20;99.90;;;;;;4956454;29;20206;-77
2023/12/22 03:39:48;;;;;;;0.70;0.70;;;2.10;99.90;;;;;;4956548;29;20276;-76
2023/12/22 03:42:14;;;;;;;0.70;0.60;;;2.10;99.90;;;;;;4956419;29;20640;-77
2023/12/22 03:44:41;;;;;;;2.73;1.03;;;2.00;99.90;;;;;;4956142;29;20676;-77
2023/12/22 03:47:09;;;;;;;1.13;0.63;;;2.00;99.90;;;;;;4956288;29;20248;-78
2023/12/22 03:49:36;;;;;;;3.10;0.97;;;2.00;99.90;;;;;;4956208;29;20197;-77
2023/12/22 03:52:02;;;;;;;2.27;1.00;;;2.00;99.90;;;;;;4956532;29;20197;-78
2023/12/22 03:54:29;;;;;;;3.10;0.83;;;2.00;99.90;;;;;;4956058;29;20276;-77
2023/12/22 03:56:55;;;;;;;3.13;1.00;;;2.10;99.90;;;;;;4956140;29;20208;-78
2023/12/22 03:59:22;;;;;;;1.33;0.90;;;2.10;99.90;;;;;;4956164;29;20197;-77
2023/12/22 04:01:52;;;;;;;2.47;0.80;;;2.20;99.90;;;;;;4955941;29;20543;-78
2023/12/22 04:04:22;;;;;;;2.13;0.80;;;2.30;99.90;;;;;;4955913;29;20292;-77
2023/12/22 04:06:48;;;;;;;1.13;0.90;;;2.30;99.90;;;;;;4955898;29;20201;-74
2023/12/22 04:09:15;;;;;;;3.90;1.10;;;2.40;99.90;;;;;;4955507;29;20205;-77
2023/12/22 04:11:41;;;;;;;3.50;1.03;;;2.40;99.90;;;;;;4955806;29;20652;-77
2023/12/22 04:14:08;;;;;;;1.23;1.07;;;2.40;99.90;;;;;;4955786;29;20589;-77
2023/12/22 04:16:37;;;;;;;6.20;1.07;;;2.40;99.90;;;;;;4955317;29;20204;-77
2023/12/22 04:19:04;;;;;;;1.43;0.77;;;2.50;99.90;;;;;;4955783;29;20207;-78
2023/12/22 04:21:32;;;;;;;1.20;0.73;;;2.50;99.90;;;;;;4955586;29;20645;-77
2023/12/22 04:23:58;;;;;;;1.03;0.70;;;2.40;99.90;;;;;;4955741;29;20201;-77
2023/12/22 04:26:25;;;;;;;1.80;0.83;;;2.40;99.90;;;;;;4955588;28;20201;-77
2023/12/22 04:28:52;;;;;;;1.60;0.83;;;2.40;99.90;;;;;;4955756;29;20248;-77
2023/12/22 04:31:18;;;;;;;2.57;0.83;;;2.40;99.90;;;;;;4955311;29;20608;-77
2023/12/22 04:33:45;;;;;;;0.80;0.80;;;2.40;99.90;;;;;;4956140;29;20229;-77
2023/12/22 04:36:12;;;;;;;1.70;0.97;;;2.40;99.90;;;;;;4955538;29;20261;-77
2023/12/22 04:38:41;;;;;;;1.83;1.00;;;2.50;99.90;;;;;;4955646;29;20197;-76
2023/12/22 04:41:07;;;;;;;1.87;1.10;;;2.40;99.90;;;;;;4955355;29;20202;-76
2023/12/22 04:43:34;;;;;;;1.37;1.17;;;2.40;99.90;;;;;;4954908;29;20241;-76
2023/12/22 04:46:00;;;;;;;1.87;1.03;;;2.40;99.90;;;;;;4955361;29;20205;-75
2023/12/22 04:48:27;;;;;;;1.33;1.20;;;2.40;99.90;;;;;;4955499;29;20208;-75
2023/12/22 04:50:53;;;;;;;2.60;1.40;;;2.40;99.90;;;;;;4949769;29;20546;-76
2023/12/22 04:53:19;;;;;;;1.30;1.20;;;2.30;99.90;;;;;;4954984;29;20256;-76
2023/12/22 04:55:47;;;;;;;1.57;1.37;;;2.30;99.90;;;;;;4955044;29;20209;-76
2023/12/22 04:58:14;;;;;;;1.73;1.23;;;2.20;99.90;;;;;;4955010;29;20213;-76
2023/12/22 05:00:41;;;;;;;5.47;1.43;;;2.20;99.90;;;;;;4955024;29;20205;-76
2023/12/22 05:03:07;;;;;;;2.67;1.60;;;2.10;99.90;;;;;;4955017;29;20209;-77
2023/12/22 05:05:34;;;;;;;1.57;1.47;;;2.10;99.90;;;;;;4954709;29;20212;-76
2023/12/22 05:08:01;;;;;;;2.03;1.60;;;2.00;99.90;;;;;;4954956;29;20252;-77
2023/12/22 05:10:27;;;;;;;1.90;1.70;;;2.00;99.90;;;;;;4954919;29;20264;-76
2023/12/22 05:12:55;;;;;;;1.60;1.50;;;2.00;99.90;;;;;;4954364;29;20602;-77
2023/12/22 05:15:22;;;;;;;1.90;1.20;;;1.90;99.90;;;;;;4954943;29;20303;-77
2023/12/22 05:17:49;;;;;;;1.50;1.40;;;1.70;99.90;;;;;;4954945;29;20201;-78
2023/12/22 05:20:15;;;;;;;2.63;1.40;;;1.60;99.90;;;;;;4954342;29;20272;-77
2023/12/22 05:22:42;;;;;;;1.60;1.50;;;1.60;99.90;;;;;;4954738;29;20201;-77
2023/12/22 05:25:09;;;;;;;1.73;1.63;;;1.60;99.90;;;;;;4954557;29;20626;-77
2023/12/22 05:27:36;;;;;;;1.20;1.10;;;1.60;99.90;;;;;;4954989;29;20291;-77
2023/12/22 05:30:05;;;;;;;1.20;0.87;;;1.70;99.90;;;;;;4954962;29;20197;-78
2023/12/22 05:32:32;;;;;;;1.10;1.00;;;1.80;99.90;;;;;;4954510;29;20201;-78
2023/12/22 05:34:59;;;;;;;0.93;0.90;;;1.90;99.90;;;;;;4954571;29;20231;-77
2023/12/22 05:37:26;;;;;;;1.10;1.00;;;1.90;99.90;;;;;;4954973;28;20248;-77
2023/12/22 05:39:52;;;;;;;1.43;1.00;;;1.90;99.90;;;;;;4958313;29;20205;-79
2023/12/22 05:42:19;;;;;;;1.73;0.90;;;1.90;99.90;;;;;;4958416;29;20233;-77
2023/12/22 05:44:49;;;;;;;1.57;1.17;;;1.90;99.90;;;;;;4958413;29;20200;-77
2023/12/22 05:47:17;;;;;;;1.83;1.40;;;2.00;99.90;;;;;;4958450;29;20609;-78
2023/12/22 05:49:44;;;;;;;4.87;1.67;;;2.20;99.90;;;;;;4958251;29;20201;-78
2023/12/22 05:52:12;;;;;;;1.70;1.60;;;2.30;99.90;;;;;;4958262;29;20601;-78
2023/12/22 05:54:39;;;;;;;3.00;1.93;;;2.40;99.90;;;;;;4958405;29;20233;-78
2023/12/22 05:57:06;;;;;;;5.03;2.10;;;2.50;99.90;;;;;;4958277;29;20260;-78
2023/12/22 05:59:34;;;;;;;4.17;2.07;;;2.60;99.90;;;;;;4957892;29;20208;-78
2023/12/22 06:02:01;;;;;;;4.47;2.00;;;2.80;99.90;;;;;;4958116;29;20727;-78
2023/12/22 06:04:29;;;;;;;5.70;2.10;;;2.90;99.90;;;;;;4958137;29;20198;-78
2023/12/22 06:06:55;;;;;;;7.03;2.43;;;3.10;99.90;;;;;;4958002;29;20252;-78
2023/12/22 06:09:22;;;;;;;7.30;2.80;;;3.20;99.90;;;;;;4957892;29;20199;-78
2023/12/22 06:11:49;;;;;;;4.10;2.17;;;3.20;99.90;;;;;;4958159;29;20198;-77
2023/12/22 06:14:16;;;;;;;7.93;2.57;;;3.20;99.90;;;;;;4957827;29;20257;-78
2023/12/22 06:16:42;;;;;;;5.50;2.10;;;3.30;99.90;;;;;;4958093;29;20206;-78
2023/12/22 06:19:09;;;;;;;10.07;2.60;;;3.40;99.90;;;;;;4957725;29;20197;-77
2023/12/22 06:21:39;;;;;;;19.43;7.87;;;3.40;99.90;;;;;;4957568;29;20564;-78
2023/12/22 06:24:07;;;;;;;23.03;11.00;;;3.50;99.90;;;;;;4957821;29;20210;-78
2023/12/22 06:26:34;;;;;;;5.83;3.40;;;3.50;99.90;;;;;;4957575;29;20613;-78
2023/12/22 06:29:01;;;;;;;5.37;2.77;;;3.50;99.90;;;;;;4957576;29;20201;-77
2023/12/22 06:31:27;;;;;;;5.60;2.13;;;3.50;99.90;;;;;;4957521;29;20258;-78
2023/12/22 06:33:54;;;;;;;8.60;3.00;;;3.40;99.90;;;;;;4957410;29;20249;-77
2023/12/22 06:36:21;;;;;;;5.73;2.83;;;3.40;99.90;;;;;;4957474;29;20527;-77
2023/12/22 06:38:49;;;;;;;8.97;2.73;;;3.40;99.90;;;;;;4957423;29;20205;-77
2023/12/22 06:41:20;;;;;;;11.53;2.90;;;3.40;99.90;;;;;;4957207;29;20617;-77
2023/12/22 06:43:47;;;;;;;7.67;2.47;;;3.40;99.90;;;;;;4957200;29;20663;-77
2023/12/22 06:46:16;;;;;;;4.53;2.20;;;3.40;99.90;;;;;;4957137;29;20203;-78
2023/12/22 06:48:43;;;;;;;5.17;2.07;;;3.50;99.90;;;;;;4956516;28;20288;-77
2023/12/22 06:51:18;;;;;;;4.83;2.83;;;3.50;99.90;;;;;;4956977;29;20240;-78
2023/12/22 06:53:45;;;;;;;6.33;2.60;;;3.40;99.90;;;;;;4957338;29;20206;-78
2023/12/22 06:56:17;;;;;;;3.33;2.30;;;3.20;99.90;;;;;;4957028;29;20234;-78
2023/12/22 06:58:44;;;;;;;5.13;2.20;;;3.20;99.90;;;;;;4957224;29;20206;-78
2023/12/22 07:01:11;;;;;;;4.07;2.20;;;3.20;99.90;;;;;;4956804;29;20241;-78
2023/12/22 07:03:38;;;;;;;3.70;2.17;;;3.20;99.90;;;;;;4957249;29;20232;-79
2023/12/22 07:06:05;;;;;;;3.87;1.77;;;3.30;99.90;;;;;;4957025;29;20213;-78
2023/12/22 07:08:33;;;;;;;4.70;1.90;;;3.40;99.90;;;;;;4957216;29;20212;-78
2023/12/22 07:10:59;;;;;;;2.77;1.87;;;3.40;99.90;;;;;;4956774;29;20252;-76
2023/12/22 07:13:27;;;;;;;8.03;1.80;;;3.50;99.90;;;;;;4956801;29;20615;-77
2023/12/22 07:15:54;;;;;;;3.10;1.93;;;3.50;99.90;;;;;;4956876;29;20228;-78
2023/12/22 07:18:21;;;;;;;4.03;1.73;;;3.50;99.90;;;;;;4956642;29;20233;-79
2023/12/22 07:20:47;;;;;;;6.40;2.10;;;3.50;99.90;;;;;;4956976;29;20205;-78
2023/12/22 07:23:15;;;;;;;6.13;2.00;;;3.50;99.90;;;;;;4956489;29;20550;-79
2023/12/22 07:25:42;;;;;;;3.30;1.80;;;3.50;99.90;;;;;;4956632;29;20585;-79
2023/12/22 07:28:08;;;;;;;4.87;1.87;;;3.50;99.90;;;;;;4956389;29;20206;-79
2023/12/22 07:30:36;;;;;;;7.37;1.93;;;3.60;99.90;;;;;;4956351;29;20704;-79
2023/12/22 07:33:03;;;;;;;5.63;1.60;;;3.50;99.90;;;;;;4956329;29;20208;-80
2023/12/22 07:35:30;;;;;;;3.60;1.70;;;3.50;99.90;;;;;;4956329;29;20233;-79
2023/12/22 07:37:57;;;;;;;3.63;1.43;;;3.50;99.90;;;;;;4956398;29;20260;-78
2023/12/22 07:40:23;;;;;;;4.00;1.60;;;3.60;99.90;;;;;;4956367;29;20593;-77
2023/12/22 07:42:50;;;;;;;3.77;1.50;;;3.60;99.90;;;;;;4956221;29;20264;-76
2023/12/22 07:45:17;;;;;;;5.10;1.80;;;3.60;99.90;;;;;;4956176;29;20205;-76
2023/12/22 07:47:46;;;;;;;4.80;1.70;;;3.60;99.90;;;;;;4956399;29;20258;-75
2023/12/22 07:50:12;;;;;;;2.93;1.70;;;3.60;99.90;;;;;;4956095;29;20720;-74
2023/12/22 07:52:39;;;;;;;5.27;2.03;;;3.70;99.90;;;;;;4956124;29;20205;-75
2023/12/22 07:55:08;;;;;;;3.13;1.57;;;3.80;99.90;;;;;;4955854;29;20234;-74
2023/12/22 07:57:35;;;;;;;4.10;1.83;;;3.90;99.90;;;;;;4956140;29;20216;-75
2023/12/22 08:00:03;;;;;;;5.53;1.67;;;3.90;99.90;;;;;;4956349;28;20208;-75
2023/12/22 08:02:30;;;;;;;6.13;1.70;;;3.90;99.90;;;;;;4956440;29;20206;-76
2023/12/22 08:04:58;;;;;;;5.20;1.50;;;3.90;99.90;;;;;;4956405;29;20208;-77
2023/12/22 08:07:25;;;;;;;3.13;1.50;;;4.00;99.90;;;;;;4956107;29;20206;-82
2023/12/22 08:09:51;;;;;;;3.00;1.50;;;4.10;99.90;;;;;;4956046;29;20234;-81
2023/12/22 08:12:18;;;;;;;1.83;1.30;;;4.20;99.90;;;;;;4956073;29;20252;-80
2023/12/22 08:14:44;;;;;;;3.80;1.50;;;4.40;99.90;;;;;;4956897;29;20280;-82
2023/12/22 08:17:13;;;;;;;3.27;1.50;;;4.30;99.90;;;;;;4955969;29;20267;-77
2023/12/22 08:19:42;;;;;;;3.57;1.40;;;4.40;99.90;;;;;;4955367;29;20291;-78
2023/12/22 08:22:10;;;;;;;3.90;1.57;;;4.40;99.90;;;;;;4955442;29;20201;-79
2023/12/22 08:24:37;;;;;;;4.43;1.60;;;4.50;99.90;;;;;;4955513;29;20215;-78
2023/12/22 08:27:05;;;;;;;4.97;1.20;;;4.50;99.90;;;;;;4956172;29;20292;-82
2023/12/22 08:29:32;;;;;;;2.43;1.33;;;4.50;99.90;;;;;;4955629;29;20254;-79
2023/12/22 08:32:00;;;;;;;3.30;1.20;;;4.50;99.90;;;;;;4955145;29;20203;-79
2023/12/22 08:34:27;;;;;;;2.87;1.50;;;4.50;99.90;;;;;;4955333;29;20240;-78
2023/12/22 08:36:53;;;;;;;2.57;1.43;;;4.60;99.90;;;;;;4955399;29;20609;-78
2023/12/22 08:39:21;;;;;;;4.87;1.83;;;4.70;99.90;;;;;;4955422;29;20540;-76
2023/12/22 08:41:48;;;;;;;4.33;1.80;;;4.80;99.90;;;;;;4955218;29;20700;-76
2023/12/22 08:44:15;;;;;;;3.33;1.60;;;4.90;99.90;;;;;;4955355;29;20255;-77
2023/12/22 08:46:42;;;;;;;4.07;1.57;;;5.00;99.90;;;;;;4955221;29;20205;-76
2023/12/22 08:49:09;;;;;;;4.07;1.30;;;5.20;99.90;;;;;;4955432;29;20197;-76
2023/12/22 08:51:35;;;;;;;5.10;2.03;;;5.30;99.90;;;;;;4955092;29;20283;-75
2023/12/22 08:54:04;;;;;;;4.43;1.90;;;5.30;99.90;;;;;;4955555;29;20256;-81
2023/12/22 08:56:31;;;;;;;5.03;2.00;;;5.20;99.90;;;;;;4956053;29;20236;-77
2023/12/22 08:58:59;;;;;;;6.47;2.00;;;5.10;99.90;;;;;;4962627;29;20235;-83
2023/12/22 09:01:26;;;;;;;3.97;1.70;;;4.90;99.90;;;;;;4958317;29;20240;-77
2023/12/22 09:03:53;;;;;;;4.10;1.97;;;4.70;99.90;;;;;;4957509;29;20259;-85
2023/12/22 09:06:21;;;;;;;7.33;2.30;;;4.70;99.90;;;;;;4956399;29;20212;-84
2023/12/22 09:08:49;;;;;;;7.80;2.07;;;4.70;99.90;;;;;;4956325;29;20209;-85
2023/12/22 09:11:18;;;;;;;7.77;2.50;;;4.70;99.90;;;;;;4957376;29;20214;-86
2023/12/22 09:13:46;;;;;;;8.87;2.37;;;4.90;99.90;;;;;;4957123;28;20204;-86
2023/12/22 09:16:14;;;;;;;5.70;2.00;;;5.00;99.90;;;;;;4956811;29;20326;-86
2023/12/22 09:18:42;;;;;;;10.53;2.63;;;5.00;99.90;;;;;;4956187;29;20207;-86
2023/12/22 09:21:08;;;;;;;9.43;2.63;;;5.00;99.90;;;;;;4956084;29;20598;-84
2023/12/22 09:23:35;;;;;;;8.93;2.60;;;5.10;99.90;;;;;;4955710;29;20208;-79
2023/12/22 09:26:04;;;;;;;9.87;2.40;;;5.20;99.90;;;;;;4955872;29;20253;-87
2023/12/22 09:28:31;;;;;;;9.00;2.40;;;5.10;99.90;;;;;;4940681;29;20283;-87
2023/12/22 09:30:59;;;;;;;6.37;2.20;;;5.00;99.90;;;;;;4955513;29;20610;-83
2023/12/22 09:33:25;;;;;;;5.53;2.40;;;5.00;99.90;;;;;;4955223;29;20215;-75
2023/12/22 09:35:52;;;;;;;6.47;2.40;;;5.00;99.90;;;;;;4954413;29;20229;-81
2023/12/22 09:38:20;;;;;;;7.47;2.40;;;5.20;99.90;;;;;;4954823;29;20204;-82
2023/12/22 09:40:47;;;;;;;13.73;2.20;;;5.40;99.90;;;;;;4955418;29;20263;-90
2023/12/22 09:43:16;;;;;;;6.97;2.10;;;5.40;99.90;;;;;;4954858;29;20688;-78
2023/12/22 09:45:43;;;;;;;7.17;2.17;;;5.60;99.90;;;;;;4954503;29;20209;-79
2023/12/22 09:48:16;;;;;;;6.37;1.90;;;5.60;99.90;;;;;;4954669;29;20214;-77
2023/12/22 09:50:44;;;;;;;4.63;1.90;;;5.80;99.90;;;;;;4954400;29;20201;-77
2023/12/22 09:53:11;;;;;;;5.93;1.70;;;5.80;99.90;;;;;;4954457;29;20251;-76
2023/12/22 09:55:39;;;;;;;6.30;1.37;;;5.70;99.90;;;;;;4954307;29;20231;-75
2023/12/22 09:58:08;;;;;;;2.77;1.70;;;5.80;99.90;;;;;;4954331;29;20201;-75
2023/12/22 10:00:37;;;;;;;4.43;1.80;;;5.80;99.90;;;;;;4954637;29;20225;-74
2023/12/22 10:03:06;;;;;;;2.97;1.40;;;5.90;99.90;;;;;;4954499;29;20201;-75
2023/12/22 10:05:34;;;;;;;5.53;2.13;;;5.90;99.90;;;;;;4954368;29;20204;-75
2023/12/22 10:08:02;;;;;;;4.90;2.80;;;5.70;99.90;;;;;;4954205;29;20205;-75
2023/12/22 10:10:30;;;;;;;4.03;1.63;;;5.80;99.90;;;;;;4954299;29;20292;-75
2023/12/22 10:12:57;;;;;;;3.13;1.87;;;5.80;99.90;;;;;;4954025;29;20256;-79
2023/12/22 10:15:24;;;;;;;4.17;2.67;;;5.70;99.90;;;;;;4954606;29;20576;-81
2023/12/22 10:17:51;;;;;;;5.37;2.50;;;5.50;99.90;;;;;;4954072;29;20672;-81
2023/12/22 10:20:18;;;;;;;4.37;1.87;;;5.50;99.90;;;;;;4953679;29;20212;-80
2023/12/22 10:22:47;;;;;;;2.33;1.40;;;5.40;99.90;;;;;;4954203;29;20197;-81
2023/12/22 10:25:15;;;;;;;4.40;1.73;;;5.30;99.90;;;;;;4957327;28;20232;-81
2023/12/22 10:27:43;;;;;;;3.53;1.43;;;5.20;99.90;;;;;;4957792;29;20208;-81
2023/12/22 10:30:11;;;;;;;3.57;1.90;;;5.00;99.90;;;;;;4958023;29;20255;-81
2023/12/22 10:32:42;;;;;;;1.73;1.20;;;4.80;99.90;;;;;;4957845;29;20201;-81
2023/12/22 10:35:09;;;;;;;6.83;1.67;;;4.60;99.90;;;;;;4958357;29;20199;-82
2023/12/22 10:37:36;;;;;;;2.50;1.30;;;4.50;99.90;;;;;;4957929;29;20264;-79
2023/12/22 10:40:06;;;;;;;4.53;1.70;;;4.40;99.90;;;;;;4957294;29;20210;-80
2023/12/22 10:42:33;;;;;;;2.50;1.67;;;4.40;99.90;;;;;;4957208;29;20280;-80
2023/12/22 10:45:00;;;;;;;4.10;2.07;;;4.40;99.90;;;;;;4957330;29;20561;-82
2023/12/22 10:47:27;;;;;;;7.83;2.73;;;4.30;99.90;;;;;;4957308;29;20264;-81
2023/12/22 10:49:54;;;;;;;2.83;2.00;;;4.30;99.90;;;;;;4957730;29;20233;-82
2023/12/22 10:52:21;;;;;;;3.63;2.00;;;4.40;99.90;;;;;;4957308;29;20204;-82
2023/12/22 10:54:49;;;;;;;5.93;2.23;;;4.40;99.90;;;;;;4957657;29;20208;-83
2023/12/22 10:57:20;;;;;;;8.47;2.83;;;4.50;99.90;;;;;;4957769;29;20295;-83
2023/12/22 10:59:48;;;;;;;6.80;2.23;;;4.60;99.90;;;;;;4957411;29;20233;-82
2023/12/22 11:02:17;;;;;;;5.23;2.73;;;4.60;99.90;;;;;;4957535;29;20613;-82
2023/12/22 11:04:58;;;;;;;5.93;2.57;;;4.80;99.90;;;;;;4956777;29;20209;-80
2023/12/22 11:07:25;;;;;;;8.73;3.07;;;4.80;99.90;;;;;;4957067;29;20657;-80
2023/12/22 11:09:53;;;;;;;6.83;2.97;;;4.90;99.90;;;;;;4956610;29;20760;-80
2023/12/22 11:12:24;;;;;;;8.40;3.73;;;5.00;99.90;;;;;;4957119;29;20228;-79
2023/12/22 11:14:52;;;;;;;9.53;3.80;;;5.10;99.90;;;;;;4957044;29;20244;-79
2023/12/22 11:17:21;;;;;;;11.37;4.53;;;5.30;99.90;;;;;;4956399;29;20225;-79
2023/12/22 11:19:50;;;;;;;10.67;3.57;;;5.40;99.90;;;;;;4956840;29;20233;-78
2023/12/22 11:22:18;;;;;;;11.77;5.60;;;5.40;99.90;;;;;;4955684;29;20268;-79
2023/12/22 11:24:47;;;;;;;13.63;4.27;;;5.40;99.90;;;;;;4956540;29;20303;-79
2023/12/22 11:27:14;;;;;;;8.03;2.67;;;5.40;99.90;;;;;;4956126;29;20274;-80
2023/12/22 11:29:42;;;;;;;6.47;2.90;;;5.40;99.90;;;;;;4956638;29;20209;-79
2023/12/22 11:32:11;;;;;;;9.07;3.23;;;5.40;99.90;;;;;;4959005;29;20205;-78
2023/12/22 11:34:40;;;;;;;7.30;3.67;;;5.40;99.90;;;;;;4959145;28;20208;-78
2023/12/22 11:37:08;;;;;;;9.97;3.17;;;5.40;99.90;;;;;;4956196;29;20235;-79
2023/12/22 11:39:35;;;;;;;9.83;3.33;;;5.40;99.90;;;;;;4956239;29;20201;-78
2023/12/22 11:42:04;;;;;;;14.43;3.77;;;5.50;99.90;;;;;;4955808;29;20236;-77
2023/12/22 11:44:31;;;;;;;9.17;4.83;;;5.60;99.90;;;;;;4956126;29;20292;-77
2023/12/22 11:47:10;;;;;;;12.00;5.57;;;5.60;99.90;;;;;;4956327;29;20200;-78
2023/12/22 11:49:38;;;;;;;10.67;4.13;;;5.60;99.90;;;;;;4955661;29;20204;-80
2023/12/22 11:52:12;;;;;;;13.97;4.80;;;5.60;99.90;;;;;;4955958;29;20652;-81
2023/12/22 11:54:45;;;;;;;14.50;5.50;;;5.70;99.90;;;;;;4948926;29;20201;-82
2023/12/22 11:57:30;;;;;;;15.50;4.03;;;5.70;99.90;;;;;;4957062;29;20320;-84
2023/12/22 11:59:57;;;;;;;17.50;5.27;;;5.80;99.90;;;;;;4956731;29;20201;-75
2023/12/22 12:02:25;;;;;;;13.33;5.00;;;5.90;99.90;;;;;;4958351;29;20201;-87
2023/12/22 12:04:52;;;;;;;19.47;5.17;;;5.90;99.90;;;;;;4924978;29;20681;-84
2023/12/22 12:07:43;;;;;;;17.87;5.40;;;5.90;99.90;;;;;;4941729;29;20205;-77
2023/12/22 12:10:10;;;;;;;13.10;4.27;;;5.80;99.90;;;;;;4959347;29;20209;-88
2023/12/22 12:12:37;;;;;;;18.37;5.13;;;5.90;99.90;;;;;;4949480;29;20205;-85
2023/12/22 12:15:18;;;;;;;23.17;5.17;;;5.90;99.90;;;;;;4956812;29;20209;-85
2023/12/22 12:17:46;;;;;;;11.63;3.50;;;6.00;99.90;;;;;;4956004;29;20283;-85
2023/12/22 12:20:13;;;;;;;9.90;4.37;;;6.00;99.90;;;;;;4956728;29;20197;-86
2023/12/22 12:22:40;;;;;;;16.53;5.17;;;6.00;99.90;;;;;;4939492;29;20197;-83
2023/12/22 12:25:11;;;;;;;15.83;4.63;;;6.00;99.90;;;;;;4955528;29;20224;-82
2023/12/22 12:27:39;;;;;;;14.30;4.13;;;6.00;99.90;;;;;;4955657;29;20256;-82
2023/12/22 12:30:11;;;;;;;13.07;4.20;;;6.00;99.90;;;;;;4955408;29;20240;-82
2023/12/22 12:32:39;;;;;;;16.53;4.87;;;6.10;99.90;;;;;;4955417;29;20209;-81
2023/12/22 12:35:08;;;;;;;15.87;4.40;;;6.10;99.90;;;;;;4955317;29;20217;-80
2023/12/22 12:37:34;;;;;;;11.47;4.03;;;6.10;99.90;;;;;;4955010;29;20236;-81
2023/12/22 12:40:04;;;;;;;16.63;4.43;;;6.10;99.90;;;;;;4955174;29;20205;-79
2023/12/22 12:42:32;;;;;;;15.17;4.63;;;6.10;99.90;;;;;;4954894;29;20267;-78
2023/12/22 12:44:59;;;;;;;14.77;4.70;;;6.10;99.90;;;;;;4955027;29;20609;-78
2023/12/22 12:47:25;;;;;;;13.07;4.90;;;6.10;99.90;;;;;;4955002;28;20658;-79
2023/12/22 12:49:58;;;;;;;16.33;6.93;;;6.10;99.90;;;;;;4956032;29;20233;-79
2023/12/22 12:52:26;;;;;;;9.60;4.10;;;6.10;99.90;;;;;;4957060;29;20251;-81
2023/12/22 12:54:53;;;;;;;15.57;7.77;;;6.10;99.90;;;;;;4955136;29;20589;-81
2023/12/22 12:57:21;;;;;;;12.17;4.17;;;6.00;99.90;;;;;;4955004;29;20275;-81